createdAt,value
2023-03-16T00:01:29.920Z,99226.66
2023-03-16T00:03:36.608Z,99219.22
2023-03-16T00:05:41.745Z,99221.75
2023-03-16T00:07:47.251Z,99223.16
2023-03-16T00:09:54.803Z,99225.00
2023-03-16T00:12:00.469Z,99223.41
2023-03-16T00:14:06.520Z,99226.38
2023-03-16T00:16:16.932Z,99233.69
2023-03-16T00:18:22.556Z,99223.75
2023-03-16T00:20:28.473Z,99222.78
2023-03-16T00:22:34.378Z,99224.09
2023-03-16T00:24:39.339Z,99228.88
2023-03-16T00:26:46.972Z,99235.50
2023-03-16T00:28:54.358Z,99227.78
2023-03-16T00:31:00.375Z,99232.03
2023-03-16T00:33:05.766Z,99233.72
2023-03-16T00:35:12.040Z,99238.31
2023-03-16T00:37:19.044Z,99233.31
2023-03-16T00:39:24.055Z,99239.41
2023-03-16T00:41:29.310Z,99236.72
2023-03-16T00:43:41.341Z,99236.22
2023-03-16T00:45:47.206Z,99225.78
2023-03-16T00:47:54.449Z,99232.16
2023-03-16T00:50:01.054Z,99235.53
2023-03-16T00:52:07.506Z,99231.09
2023-03-16T00:54:12.838Z,99224.09
2023-03-16T00:56:19.727Z,99220.63
2023-03-16T00:58:24.877Z,99221.34
2023-03-16T01:00:32.519Z,99226.38
2023-03-16T01:02:37.464Z,99224.38
2023-03-16T01:04:43.820Z,99227.28
2023-03-16T01:06:49.317Z,99224.25
2023-03-16T01:08:55.065Z,99224.59
2023-03-16T01:11:04.526Z,99223.09
2023-03-16T01:13:10.148Z,99224.09
2023-03-16T01:15:16.707Z,99221.66
2023-03-16T01:17:25.138Z,99234.22
2023-03-16T01:19:30.346Z,99223.31
2023-03-16T01:21:38.238Z,99225.09
2023-03-16T01:23:44.472Z,99224.47
2023-03-16T01:25:53.211Z,99228.97
2023-03-16T01:27:58.492Z,99225.84
2023-03-16T01:30:04.117Z,99217.56
2023-03-16T01:32:10.090Z,99207.31
2023-03-16T01:34:18.738Z,99209.38
2023-03-16T01:36:25.174Z,99209.06
2023-03-16T01:38:40.471Z,99215.88
2023-03-16T01:40:45.584Z,99220.59
2023-03-16T01:43:02.611Z,99218.41
2023-03-16T01:46:14.832Z,99208.75
2023-03-16T01:48:25.041Z,99194.19
2023-03-16T01:50:33.870Z,99199.00
2023-03-16T01:52:40.910Z,99196.78
2023-03-16T01:54:51.217Z,99191.31
2023-03-16T01:57:05.941Z,99190.13
2023-03-16T01:59:19.336Z,99192.50
2023-03-16T02:01:24.662Z,99193.25
2023-03-16T02:03:30.674Z,99190.63
2023-03-16T02:05:55.242Z,99182.56
2023-03-16T02:08:04.369Z,99179.78
2023-03-16T02:10:13.811Z,99186.47
2023-03-16T02:12:20.609Z,99181.56
2023-03-16T02:14:31.905Z,99169.72
2023-03-16T02:16:37.039Z,99171.41
2023-03-16T02:18:42.889Z,99174.75
2023-03-16T02:20:58.943Z,99169.72
2023-03-16T02:23:05.485Z,99163.34
2023-03-16T02:25:11.614Z,99166.38
2023-03-16T02:27:26.880Z,99165.94
2023-03-16T02:30:08.051Z,99168.06
2023-03-16T02:32:21.977Z,99168.94
2023-03-16T02:34:29.092Z,99176.66
2023-03-16T02:36:36.757Z,99179.78
2023-03-16T02:38:41.853Z,99184.94
2023-03-16T02:40:58.362Z,99186.38
2023-03-16T02:43:07.853Z,99194.88
2023-03-16T02:45:20.823Z,99184.94
2023-03-16T02:47:36.028Z,99192.56
2023-03-16T02:49:44.879Z,99181.63
2023-03-16T02:51:51.484Z,99181.56
2023-03-16T02:53:56.671Z,99175.63
2023-03-16T02:56:03.169Z,99169.94
2023-03-16T02:58:11.672Z,99166.75
2023-03-16T03:00:22.025Z,99154.28
2023-03-16T03:02:29.647Z,99149.25
2023-03-16T03:04:34.568Z,99154.28
2023-03-16T03:06:40.017Z,99154.19
2023-03-16T03:08:45.309Z,99154.72
2023-03-16T03:10:50.921Z,99152.75
2023-03-16T03:12:55.863Z,99152.00
2023-03-16T03:15:01.052Z,99152.06
2023-03-16T03:17:15.107Z,99152.25
2023-03-16T03:19:20.009Z,99145.81
2023-03-16T03:21:26.598Z,99153.69
2023-03-16T03:23:31.504Z,99148.19
2023-03-16T03:25:36.869Z,99145.06
2023-03-16T03:27:43.682Z,99150.94
2023-03-16T03:29:52.422Z,99153.94
2023-03-16T03:31:58.935Z,99150.81
2023-03-16T03:34:06.920Z,99145.81
2023-03-16T03:36:14.865Z,99147.41
2023-03-16T03:38:21.011Z,99143.56
2023-03-16T03:40:27.529Z,99140.78
2023-03-16T03:42:39.724Z,99151.41
2023-03-16T03:44:46.140Z,99145.31
2023-03-16T03:46:52.547Z,99142.75
2023-03-16T03:49:02.071Z,99135.38
2023-03-16T03:51:13.099Z,99127.34
2023-03-16T03:53:23.759Z,99131.31
2023-03-16T03:55:53.636Z,99141.75
2023-03-16T03:58:00.008Z,99124.53
2023-03-16T04:00:07.919Z,99126.91
2023-03-16T04:02:20.499Z,99125.53
2023-03-16T04:04:28.913Z,99123.19
2023-03-16T04:06:37.389Z,99126.41
2023-03-16T04:08:42.382Z,99117.75
2023-03-16T04:10:50.457Z,99128.22
2023-03-16T04:12:59.499Z,99126.00
2023-03-16T04:15:06.820Z,99123.31
2023-03-16T04:17:20.987Z,99116.16
2023-03-16T04:19:28.629Z,99120.75
2023-03-16T04:21:37.087Z,99115.81
2023-03-16T04:23:42.644Z,99115.81
2023-03-16T04:25:48.284Z,99127.59
2023-03-16T04:27:56.444Z,99126.66
2023-03-16T04:30:06.011Z,99117.78
2023-03-16T04:32:11.719Z,99122.22
2023-03-16T04:34:18.536Z,99122.09
2023-03-16T04:36:26.134Z,99133.84
2023-03-16T04:38:36.586Z,99123.69
2023-03-16T04:40:41.569Z,99135.41
2023-03-16T04:42:54.916Z,99128.00
2023-03-16T04:45:00.762Z,99120.41
2023-03-16T04:47:05.906Z,99124.75
2023-03-16T04:49:16.038Z,99124.75
2023-03-16T04:51:24.072Z,99121.41
2023-03-16T04:53:44.932Z,99125.97
2023-03-16T04:56:07.484Z,99127.03
2023-03-16T04:58:13.922Z,99125.75
2023-03-16T05:00:19.928Z,99130.00
2023-03-16T05:02:34.560Z,99134.34
2023-03-16T05:04:40.274Z,99130.38
2023-03-16T05:06:49.010Z,99121.75
2023-03-16T05:08:58.368Z,99113.59
2023-03-16T05:11:03.338Z,99113.50
2023-03-16T05:13:13.581Z,99112.75
2023-03-16T05:15:19.654Z,99107.50
2023-03-16T05:17:34.765Z,99103.56
2023-03-16T05:19:40.354Z,99097.69
2023-03-16T05:21:45.751Z,99103.16
2023-03-16T05:23:51.965Z,99104.59
2023-03-16T05:26:02.846Z,99100.78
2023-03-16T05:28:10.330Z,99108.41
2023-03-16T05:30:26.865Z,99106.66
2023-03-16T05:32:34.256Z,99106.41
2023-03-16T05:34:39.197Z,99113.13
2023-03-16T05:36:45.156Z,99112.06
2023-03-16T05:38:53.655Z,99115.00
2023-03-16T05:41:09.202Z,99114.88
2023-03-16T05:43:47.568Z,99115.50
2023-03-16T05:45:54.008Z,99110.56
2023-03-16T05:47:59.626Z,99112.03
2023-03-16T05:50:05.379Z,99115.38
2023-03-16T05:52:15.136Z,99106.31
2023-03-16T05:54:20.928Z,99115.50
2023-03-16T05:56:31.057Z,99119.88
2023-03-16T05:58:37.812Z,99120.47
2023-03-16T06:00:46.762Z,99115.19
2023-03-16T06:03:04.954Z,99113.63
2023-03-16T06:05:13.862Z,99125.13
2023-03-16T06:07:21.316Z,99123.47
2023-03-16T06:09:28.311Z,99114.50
2023-03-16T06:11:35.955Z,99118.75
2023-03-16T06:13:41.747Z,99121.38
2023-03-16T06:15:46.826Z,99113.97
2023-03-16T06:17:52.736Z,99117.94
2023-03-16T06:19:58.160Z,99117.00
2023-03-16T06:22:03.138Z,99122.78
2023-03-16T06:24:10.396Z,99111.31
2023-03-16T06:26:15.309Z,99118.94
2023-03-16T06:28:26.324Z,99115.22
2023-03-16T06:30:32.157Z,99117.84
2023-03-16T06:32:39.040Z,99124.63
2023-03-16T06:34:44.443Z,99123.31
2023-03-16T06:36:50.339Z,99126.81
2023-03-16T06:38:55.356Z,99125.19
2023-03-16T06:41:13.085Z,99131.34
2023-03-16T06:43:18.072Z,99129.19
2023-03-16T06:45:26.213Z,99125.28
2023-03-16T06:47:33.982Z,99116.47
2023-03-16T06:49:39.223Z,99119.38
2023-03-16T06:51:52.232Z,99133.59
2023-03-16T06:53:58.636Z,99139.72
2023-03-16T06:56:03.884Z,99132.56
2023-03-16T06:58:11.950Z,99132.84
2023-03-16T07:00:18.897Z,99133.09
2023-03-16T07:02:26.469Z,99126.00
2023-03-16T07:04:31.942Z,99121.34
2023-03-16T07:06:36.965Z,99122.56
2023-03-16T07:08:42.568Z,99127.88
2023-03-16T07:10:48.579Z,99131.50
2023-03-16T07:12:53.589Z,99123.59
2023-03-16T07:14:58.500Z,99128.66
2023-03-16T07:17:04.465Z,99126.53
2023-03-16T07:19:12.074Z,99124.34
2023-03-16T07:21:17.386Z,99134.44
2023-03-16T07:23:24.412Z,99134.56
2023-03-16T07:25:31.724Z,99140.72
2023-03-16T07:27:38.837Z,99136.78
2023-03-16T07:29:45.231Z,99138.56
2023-03-16T07:31:50.583Z,99134.72
2023-03-16T07:34:00.505Z,99133.19
2023-03-16T07:36:22.496Z,99130.03
2023-03-16T07:38:34.355Z,99132.75
2023-03-16T07:40:40.339Z,99128.00
2023-03-16T07:42:51.325Z,99122.56
2023-03-16T07:45:13.611Z,99121.38
2023-03-16T07:47:19.846Z,99125.19
2023-03-16T07:49:24.802Z,99131.78
2023-03-16T07:51:34.315Z,99118.97
2023-03-16T07:53:40.049Z,99124.97
2023-03-16T07:55:58.196Z,99128.50
2023-03-16T07:58:05.014Z,99126.34
2023-03-16T08:00:14.444Z,99126.44
2023-03-16T08:02:23.666Z,99115.81
2023-03-16T08:04:29.684Z,99116.00
2023-03-16T08:06:40.516Z,99109.69
2023-03-16T08:08:46.538Z,99115.03
2023-03-16T08:11:00.035Z,99117.72
2023-03-16T08:13:15.862Z,99121.34
2023-03-16T08:15:23.128Z,99128.88
2023-03-16T08:17:31.444Z,99128.16
2023-03-16T08:19:38.836Z,99122.69
2023-03-16T08:22:01.066Z,99123.78
2023-03-16T08:24:13.328Z,99118.13
2023-03-16T08:26:20.242Z,99125.00
2023-03-16T08:28:27.728Z,99125.16
2023-03-16T08:30:34.531Z,99123.63
2023-03-16T08:33:11.509Z,99113.66
2023-03-16T08:35:19.278Z,99105.47
2023-03-16T08:37:28.592Z,99107.19
2023-03-16T08:39:35.695Z,99108.06
2023-03-16T08:41:46.208Z,99110.66
2023-03-16T08:44:07.953Z,99109.84
2023-03-16T08:46:13.436Z,99099.94
2023-03-16T08:48:25.523Z,99104.13
2023-03-16T08:50:31.277Z,99107.50
2023-03-16T08:52:41.229Z,99107.47
2023-03-16T08:55:01.475Z,99104.16
2023-03-16T08:57:09.576Z,99100.81
2023-03-16T08:59:28.726Z,99104.19
2023-03-16T09:01:34.930Z,99100.81
2023-03-16T09:03:40.740Z,99095.81
2023-03-16T09:05:45.760Z,99095.00
2023-03-16T09:07:54.101Z,99098.34
2023-03-16T09:09:59.308Z,99094.19
2023-03-16T09:12:06.196Z,99102.50
2023-03-16T09:14:11.527Z,99092.47
2023-03-16T09:16:19.300Z,99091.59
2023-03-16T09:18:26.234Z,99087.41
2023-03-16T09:20:33.368Z,99083.22
2023-03-16T09:22:39.508Z,99077.31
2023-03-16T09:24:46.954Z,99071.44
2023-03-16T09:26:52.165Z,99067.25
2023-03-16T09:28:57.415Z,99070.38
2023-03-16T09:31:03.124Z,99075.38
2023-03-16T09:33:08.798Z,99068.56
2023-03-16T09:35:13.674Z,99065.28
2023-03-16T09:37:18.875Z,99065.34
2023-03-16T09:39:23.817Z,99059.50
2023-03-16T09:41:44.864Z,99053.41
2023-03-16T09:44:09.217Z,99061.03
2023-03-16T09:46:22.792Z,99058.66
2023-03-16T09:48:30.916Z,99069.53
2023-03-16T09:50:48.714Z,99058.66
2023-03-16T09:53:00.133Z,99060.00
2023-03-16T09:55:10.732Z,99065.06
2023-03-16T09:57:31.308Z,99073.44
2023-03-16T09:59:36.192Z,99062.53
2023-03-16T10:01:53.789Z,99059.88
2023-03-16T10:04:14.406Z,99056.72
2023-03-16T10:06:19.500Z,99061.59
2023-03-16T10:08:27.837Z,99058.13
2023-03-16T10:11:02.674Z,99059.59
2023-03-16T10:13:21.414Z,99068.78
2023-03-16T10:15:29.887Z,99064.50
2023-03-16T10:17:42.045Z,99065.06
2023-03-16T10:19:52.644Z,99067.31
2023-03-16T10:22:00.580Z,99063.88
2023-03-16T10:24:07.544Z,99064.84
2023-03-16T10:26:20.425Z,99070.78
2023-03-16T10:28:32.236Z,99066.47
2023-03-16T10:30:41.836Z,99058.91
2023-03-16T10:32:49.564Z,99057.97
2023-03-16T10:35:02.405Z,99056.31
2023-03-16T10:37:09.532Z,99052.59
2023-03-16T10:39:17.584Z,99048.22
2023-03-16T10:41:30.381Z,99042.78
2023-03-16T10:43:38.152Z,99047.19
2023-03-16T10:45:46.493Z,99040.56
2023-03-16T10:47:51.439Z,99033.72
2023-03-16T10:49:56.518Z,99036.22
2023-03-16T10:52:09.173Z,99036.22
2023-03-16T10:54:19.966Z,99046.06
2023-03-16T10:56:28.152Z,99040.41
2023-03-16T10:58:42.060Z,99030.69
2023-03-16T11:00:50.166Z,99035.47
2023-03-16T11:02:57.309Z,99034.22
2023-03-16T11:05:02.697Z,99029.97
2023-03-16T11:07:14.980Z,99034.03
2023-03-16T11:09:27.917Z,99030.47
2023-03-16T11:11:34.694Z,99033.75
2023-03-16T11:13:48.419Z,99027.25
2023-03-16T11:16:00.564Z,99024.94
2023-03-16T11:18:06.233Z,99022.75
2023-03-16T11:20:20.323Z,99024.66
2023-03-16T11:22:27.862Z,99017.16
2023-03-16T11:24:47.767Z,99020.41
2023-03-16T11:26:58.109Z,99016.47
2023-03-16T11:29:17.872Z,99016.13
2023-03-16T11:31:32.812Z,99015.47
2023-03-16T11:33:38.065Z,99013.50
2023-03-16T11:35:59.322Z,99015.69
2023-03-16T11:38:16.334Z,99004.78
2023-03-16T11:40:38.803Z,99004.06
2023-03-16T11:42:58.261Z,98998.34
2023-03-16T11:45:21.608Z,98982.13
2023-03-16T11:47:47.513Z,98990.84
2023-03-16T11:50:05.506Z,98987.31
2023-03-16T11:52:20.783Z,98986.72
2023-03-16T11:54:50.888Z,98975.56
2023-03-16T11:57:01.867Z,98982.75
2023-03-16T11:59:51.849Z,98975.03
2023-03-16T12:02:31.996Z,98975.59
2023-03-16T12:05:08.794Z,98977.09
2023-03-16T12:07:30.806Z,98977.75
2023-03-16T12:10:06.594Z,98978.50
2023-03-16T12:12:31.085Z,98985.91
2023-03-16T12:14:44.229Z,98989.41
2023-03-16T12:16:57.335Z,98981.50
2023-03-16T12:19:06.726Z,98985.34
2023-03-16T12:21:18.466Z,98983.47
2023-03-16T12:23:29.071Z,98983.72
2023-03-16T12:25:39.562Z,98973.75
2023-03-16T12:27:45.614Z,98970.72
2023-03-16T12:30:05.025Z,98959.81
2023-03-16T12:32:19.122Z,98951.97
2023-03-16T12:34:35.955Z,98937.25
2023-03-16T12:37:10.991Z,98944.56
2023-03-16T12:39:26.114Z,98946.34
2023-03-16T12:41:42.510Z,98947.19
2023-03-16T12:44:04.625Z,98943.75
2023-03-16T12:46:15.652Z,98937.59
2023-03-16T12:48:30.267Z,98935.00
2023-03-16T12:50:37.903Z,98930.78
2023-03-16T12:52:44.921Z,98927.69
2023-03-16T12:54:54.843Z,98924.31
2023-03-16T12:57:05.643Z,98925.63
2023-03-16T12:59:11.677Z,98919.72
2023-03-16T13:01:20.834Z,98922.53
2023-03-16T13:03:28.924Z,98919.00
2023-03-16T13:05:39.231Z,98921.09
2023-03-16T13:07:51.584Z,98909.16
2023-03-16T13:10:01.863Z,98897.72
2023-03-16T13:12:07.535Z,98902.09
2023-03-16T13:14:18.589Z,98901.94
2023-03-16T13:16:30.172Z,98904.47
2023-03-16T13:18:45.443Z,98895.34
2023-03-16T13:20:59.747Z,98893.69
2023-03-16T13:23:24.444Z,98889.44
2023-03-16T13:25:43.455Z,98891.72
2023-03-16T13:27:51.328Z,98882.44
2023-03-16T13:30:00.337Z,98888.78
2023-03-16T13:32:11.553Z,98895.03
2023-03-16T13:34:23.594Z,98879.13
2023-03-16T13:36:33.523Z,98884.16
2023-03-16T13:38:39.200Z,98885.47
2023-03-16T13:40:49.341Z,98883.63
2023-03-16T13:42:56.292Z,98887.34
2023-03-16T13:45:07.786Z,98885.44
2023-03-16T13:47:19.944Z,98878.59
2023-03-16T13:49:25.758Z,98880.19
2023-03-16T13:51:37.409Z,98885.78
2023-03-16T13:53:44.598Z,98876.38
2023-03-16T13:55:50.706Z,98874.22
2023-03-16T13:57:56.141Z,98859.91
2023-03-16T14:00:20.449Z,98845.16
2023-03-16T14:02:25.405Z,98837.19
2023-03-16T14:04:34.656Z,98834.34
2023-03-16T14:06:43.207Z,98831.44
2023-03-16T14:08:52.481Z,98824.78
2023-03-16T14:11:01.333Z,98830.31
2023-03-16T14:13:12.499Z,98826.19
2023-03-16T14:15:19.138Z,98824.81
2023-03-16T14:17:26.124Z,98819.38
2023-03-16T14:19:36.072Z,98812.84
2023-03-16T14:21:48.330Z,98811.38
2023-03-16T14:23:57.791Z,98810.38
2023-03-16T14:26:03.246Z,98812.94
2023-03-16T14:28:10.599Z,98813.78
2023-03-16T14:30:24.851Z,98812.78
2023-03-16T14:32:34.412Z,98822.56
2023-03-16T14:34:41.623Z,98816.84
2023-03-16T14:36:49.708Z,98816.31
2023-03-16T14:38:55.014Z,98815.22
2023-03-16T14:41:05.758Z,98815.25
2023-03-16T14:43:12.770Z,98807.94
2023-03-16T14:45:20.385Z,98814.75
2023-03-16T14:47:30.777Z,98818.03
2023-03-16T14:49:40.011Z,98818.84
2023-03-16T14:51:52.704Z,98797.91
2023-03-16T14:53:57.701Z,98783.75
2023-03-16T14:56:02.868Z,98782.09
2023-03-16T14:58:07.912Z,98775.38
2023-03-16T15:00:17.940Z,98773.00
2023-03-16T15:02:30.317Z,98771.19
2023-03-16T15:04:38.712Z,98766.75
2023-03-16T15:06:44.571Z,98747.91
2023-03-16T15:08:52.260Z,98767.09
2023-03-16T15:11:01.098Z,98766.78
2023-03-16T15:13:13.357Z,98758.09
2023-03-16T15:15:22.608Z,98762.16
2023-03-16T15:17:27.737Z,98766.63
2023-03-16T15:19:32.606Z,98770.50
2023-03-16T15:21:37.634Z,98763.53
2023-03-16T15:23:43.433Z,98769.59
2023-03-16T15:25:53.813Z,98772.63
2023-03-16T15:27:59.253Z,98762.16
2023-03-16T15:30:04.862Z,98760.16
2023-03-16T15:32:15.601Z,98763.31
2023-03-16T15:34:20.567Z,98766.22
2023-03-16T15:36:26.162Z,98751.03
2023-03-16T15:38:34.713Z,98749.25
2023-03-16T15:40:41.811Z,98745.31
2023-03-16T15:42:49.431Z,98748.78
2023-03-16T15:44:54.337Z,98742.09
2023-03-16T15:47:00.703Z,98748.59
2023-03-16T15:49:05.652Z,98745.19
2023-03-16T15:51:24.069Z,98734.56
2023-03-16T15:53:35.728Z,98739.72
2023-03-16T15:55:44.594Z,98727.91
2023-03-16T15:57:59.263Z,98728.78
2023-03-16T16:00:04.886Z,98724.59
2023-03-16T16:02:30.588Z,98730.09
2023-03-16T16:04:35.552Z,98742.28
2023-03-16T16:06:41.299Z,98744.22
2023-03-16T16:08:47.590Z,98748.00
2023-03-16T16:10:53.635Z,98745.44
2023-03-16T16:13:02.204Z,98742.50
2023-03-16T16:15:20.046Z,98739.31
2023-03-16T16:17:43.749Z,98740.16
2023-03-16T16:19:51.059Z,98734.84
2023-03-16T16:21:56.297Z,98739.19
2023-03-16T16:24:03.242Z,98727.50
2023-03-16T16:26:23.250Z,98718.91
2023-03-16T16:28:35.709Z,98714.41
2023-03-16T16:30:40.746Z,98724.59
2023-03-16T16:32:46.451Z,98725.72
2023-03-16T16:35:03.332Z,98708.13
2023-03-16T16:37:12.676Z,98703.78
2023-03-16T16:39:18.144Z,98708.38
2023-03-16T16:41:29.969Z,98711.16
2023-03-16T16:43:41.644Z,98706.56
2023-03-16T16:45:47.424Z,98717.38
2023-03-16T16:47:56.034Z,98710.44
2023-03-16T16:50:02.076Z,98712.78
2023-03-16T16:52:08.691Z,98717.00
2023-03-16T16:54:19.365Z,98716.13
2023-03-16T16:56:31.211Z,98709.25
2023-03-16T16:58:40.678Z,98714.78
2023-03-16T17:00:45.780Z,98716.84
2023-03-16T17:02:54.226Z,98721.53
2023-03-16T17:05:00.052Z,98720.06
2023-03-16T17:07:04.993Z,98724.53
2023-03-16T17:09:10.157Z,98723.88
2023-03-16T17:11:23.585Z,98740.75
2023-03-16T17:13:32.149Z,98735.22
2023-03-16T17:15:40.063Z,98733.91
2023-03-16T17:17:45.867Z,98732.44
2023-03-16T17:19:53.819Z,98732.59
2023-03-16T17:22:01.473Z,98724.38
2023-03-16T17:24:06.619Z,98709.56
2023-03-16T17:26:19.184Z,98718.09
2023-03-16T17:28:26.265Z,98709.91
2023-03-16T17:30:34.373Z,98709.19
2023-03-16T17:32:41.976Z,98708.47
2023-03-16T17:34:46.963Z,98702.84
2023-03-16T17:36:52.443Z,98706.31
2023-03-16T17:38:58.067Z,98706.44
2023-03-16T17:41:03.663Z,98707.28
2023-03-16T17:43:16.162Z,98712.38
2023-03-16T17:45:24.000Z,98708.25
2023-03-16T17:47:36.325Z,98701.56
2023-03-16T17:49:49.081Z,98707.47
2023-03-16T17:51:54.563Z,98706.59
2023-03-16T17:53:59.613Z,98702.47
2023-03-16T17:56:05.630Z,98705.75
2023-03-16T17:58:28.937Z,98703.31
2023-03-16T18:00:37.296Z,98696.72
2023-03-16T18:02:47.191Z,98705.81
2023-03-16T18:04:54.679Z,98699.22
2023-03-16T18:06:59.553Z,98696.78
2023-03-16T18:09:04.721Z,98695.97
2023-03-16T18:11:18.330Z,98694.34
2023-03-16T18:13:26.945Z,98701.00
2023-03-16T18:15:36.545Z,98711.78
2023-03-16T18:17:41.490Z,98705.06
2023-03-16T18:19:48.871Z,98694.25
2023-03-16T18:21:57.396Z,98700.16
2023-03-16T18:24:02.619Z,98694.34
2023-03-16T18:26:09.407Z,98698.47
2023-03-16T18:28:16.524Z,98699.25
2023-03-16T18:30:21.796Z,98696.84
2023-03-16T18:32:32.348Z,98686.84
2023-03-16T18:34:37.640Z,98690.91
2023-03-16T18:36:45.112Z,98689.25
2023-03-16T18:38:54.680Z,98682.59
2023-03-16T18:41:02.449Z,98677.69
2023-03-16T18:43:08.871Z,98679.41
2023-03-16T18:45:15.324Z,98688.56
2023-03-16T18:47:22.497Z,98677.59
2023-03-16T18:49:34.376Z,98677.56
2023-03-16T18:51:40.261Z,98680.97
2023-03-16T18:53:45.400Z,98675.88
2023-03-16T18:55:55.092Z,98679.16
2023-03-16T18:58:01.507Z,98690.03
2023-03-16T19:00:08.596Z,98695.91
2023-03-16T19:02:37.261Z,98692.53
2023-03-16T19:04:42.782Z,98681.66
2023-03-16T19:06:48.386Z,98687.53
2023-03-16T19:08:53.616Z,98679.19
2023-03-16T19:11:05.060Z,98671.78
2023-03-16T19:13:18.627Z,98681.06
2023-03-16T19:15:26.709Z,98689.41
2023-03-16T19:17:31.698Z,98687.75
2023-03-16T19:19:36.615Z,98686.09
2023-03-16T19:21:42.726Z,98680.28
2023-03-16T19:23:50.788Z,98681.16
2023-03-16T19:25:57.960Z,98686.16
2023-03-16T19:28:07.305Z,98685.38
2023-03-16T19:30:25.835Z,98683.69
2023-03-16T19:32:30.763Z,98691.19
2023-03-16T19:34:35.699Z,98691.25
2023-03-16T19:36:41.275Z,98693.00
2023-03-16T19:38:50.279Z,98691.34
2023-03-16T19:40:58.720Z,98689.59
2023-03-16T19:43:07.094Z,98687.97
2023-03-16T19:45:25.428Z,98683.00
2023-03-16T19:47:34.894Z,98689.69
2023-03-16T19:49:39.773Z,98687.25
2023-03-16T19:51:44.658Z,98685.59
2023-03-16T19:53:50.067Z,98691.50
2023-03-16T19:55:56.867Z,98686.50
2023-03-16T19:58:07.619Z,98683.25
2023-03-16T20:00:23.313Z,98679.94
2023-03-16T20:02:32.414Z,98677.41
2023-03-16T20:04:38.162Z,98678.06
2023-03-16T20:06:43.434Z,98676.34
2023-03-16T20:08:49.273Z,98673.06
2023-03-16T20:10:57.148Z,98666.50
2023-03-16T20:13:07.627Z,98678.25
2023-03-16T20:15:17.285Z,98670.72
2023-03-16T20:17:26.126Z,98665.00
2023-03-16T20:19:31.246Z,98660.91
2023-03-16T20:21:36.174Z,98663.47
2023-03-16T20:23:41.270Z,98668.53
2023-03-16T20:25:46.626Z,98660.09
2023-03-16T20:27:58.070Z,98660.13
2023-03-16T20:30:05.929Z,98655.09
2023-03-16T20:32:21.135Z,98649.31
2023-03-16T20:34:29.387Z,98666.78
2023-03-16T20:36:34.447Z,98660.97
2023-03-16T20:38:39.321Z,98658.53
2023-03-16T20:40:45.761Z,98661.81
2023-03-16T20:42:52.649Z,98656.78
2023-03-16T20:44:57.630Z,98658.47
2023-03-16T20:47:05.113Z,98661.75
2023-03-16T20:49:34.074Z,98659.31
2023-03-16T20:51:38.931Z,98662.69
2023-03-16T20:53:45.123Z,98649.44
2023-03-16T20:55:50.340Z,98654.47
2023-03-16T20:57:57.730Z,98653.59
2023-03-16T21:00:02.740Z,98650.31
2023-03-16T21:02:27.160Z,98653.69
2023-03-16T21:04:32.482Z,98660.28
2023-03-16T21:06:38.033Z,98652.81
2023-03-16T21:08:42.911Z,98652.81
2023-03-16T21:10:50.364Z,98657.72
2023-03-16T21:12:58.412Z,98644.47
2023-03-16T21:15:05.002Z,98636.97
2023-03-16T21:17:26.503Z,98645.25
2023-03-16T21:19:31.698Z,98643.59
2023-03-16T21:21:36.580Z,98643.63
2023-03-16T21:23:41.910Z,98652.72
2023-03-16T21:25:51.004Z,98646.03
2023-03-16T21:27:58.399Z,98643.56
2023-03-16T21:30:19.597Z,98637.63
2023-03-16T21:32:30.937Z,98640.19
2023-03-16T21:34:38.913Z,98640.13
2023-03-16T21:36:44.578Z,98636.72
2023-03-16T21:38:53.250Z,98631.66
2023-03-16T21:40:58.481Z,98631.72
2023-03-16T21:43:03.376Z,98626.75
2023-03-16T21:45:10.730Z,98621.75
2023-03-16T21:47:29.226Z,98621.84
2023-03-16T21:49:34.097Z,98619.25
2023-03-16T21:51:40.439Z,98620.09
2023-03-16T21:53:46.524Z,98623.44
2023-03-16T21:55:52.336Z,98617.63
2023-03-16T21:57:58.631Z,98621.75
2023-03-16T22:00:05.102Z,98624.28
2023-03-16T22:02:22.681Z,98619.25
2023-03-16T22:04:30.724Z,98605.94
2023-03-16T22:06:36.028Z,98604.09
2023-03-16T22:08:41.173Z,98596.63
2023-03-16T22:10:47.121Z,98592.41
2023-03-16T22:12:52.752Z,98600.81
2023-03-16T22:14:57.871Z,98606.34
2023-03-16T22:17:02.988Z,98603.91
2023-03-16T22:19:08.589Z,98601.44
2023-03-16T22:21:30.316Z,98594.78
2023-03-16T22:23:37.728Z,98594.00
2023-03-16T22:25:42.837Z,98588.16
2023-03-16T22:27:48.096Z,98596.56
2023-03-16T22:29:53.479Z,98586.59
2023-03-16T22:32:03.052Z,98585.81
2023-03-16T22:34:09.335Z,98586.59
2023-03-16T22:36:22.319Z,98574.09
2023-03-16T22:38:27.242Z,98578.19
2023-03-16T22:40:37.428Z,98576.47
2023-03-16T22:42:42.505Z,98579.81
2023-03-16T22:44:48.091Z,98575.66
2023-03-16T22:46:53.045Z,98570.56
2023-03-16T22:48:59.348Z,98568.09
2023-03-16T22:51:07.613Z,98572.28
2023-03-16T22:53:22.195Z,98564.78
2023-03-16T22:55:33.236Z,98563.03
2023-03-16T22:57:38.170Z,98564.09
2023-03-16T22:59:43.184Z,98566.50
2023-03-16T23:01:50.440Z,98562.34
2023-03-16T23:03:55.615Z,98554.88
2023-03-16T23:06:01.837Z,98560.81
2023-03-16T23:08:21.143Z,98555.84
2023-03-16T23:10:29.668Z,98554.94
2023-03-16T23:12:35.329Z,98557.50
2023-03-16T23:14:41.357Z,98561.75
2023-03-16T23:16:47.623Z,98550.19
2023-03-16T23:18:54.055Z,98559.38
2023-03-16T23:20:59.299Z,98561.88
2023-03-16T23:23:04.183Z,98551.94
2023-03-16T23:25:12.532Z,98556.97
2023-03-16T23:27:22.337Z,98560.28
2023-03-16T23:29:28.897Z,98543.59
2023-03-16T23:31:34.749Z,98543.53
2023-03-16T23:33:39.718Z,98547.69
2023-03-16T23:35:47.147Z,98539.38
2023-03-16T23:37:53.321Z,98536.19
2023-03-16T23:39:58.851Z,98548.66
2023-03-16T23:42:07.530Z,98535.34
2023-03-16T23:44:18.081Z,98546.22
2023-03-16T23:46:26.069Z,98539.47
2023-03-16T23:48:31.457Z,98542.78
2023-03-16T23:50:38.872Z,98546.81
2023-03-16T23:52:44.010Z,98543.41
2023-03-16T23:54:50.132Z,98538.25
2023-03-16T23:56:55.254Z,98541.66
2023-03-16T23:59:02.724Z,98535.94
